createdAt,value
2023-09-13T00:00:21.846Z,13.10
2023-09-13T00:03:09.347Z,13.70
2023-09-13T00:05:36.870Z,12.50
2023-09-13T00:08:04.363Z,12.30
2023-09-13T00:10:31.493Z,13.00
2023-09-13T00:12:58.748Z,13.40
2023-09-13T00:15:26.394Z,12.70
2023-09-13T00:17:53.714Z,13.30
2023-09-13T00:20:21.066Z,13.70
2023-09-13T00:22:49.240Z,12.40
2023-09-13T00:25:16.913Z,13.10
2023-09-13T00:27:46.855Z,12.50
2023-09-13T00:30:14.443Z,13.90
2023-09-13T00:32:41.868Z,12.20
2023-09-13T00:35:09.334Z,12.70
2023-09-13T00:37:36.845Z,12.30
2023-09-13T00:40:05.747Z,12.30
2023-09-13T00:42:32.959Z,12.30
2023-09-13T00:45:00.158Z,12.40
2023-09-13T00:47:27.899Z,12.70
2023-09-13T00:49:55.601Z,13.40
2023-09-13T00:52:22.968Z,12.20
2023-09-13T00:54:50.279Z,13.10
2023-09-13T00:57:18.191Z,13.10
2023-09-13T00:59:45.523Z,12.60
2023-09-13T01:02:13.055Z,13.50
2023-09-13T01:04:40.697Z,13.60
2023-09-13T01:07:11.902Z,12.70
2023-09-13T01:09:39.246Z,13.50
2023-09-13T01:12:07.383Z,13.30
2023-09-13T01:14:35.725Z,13.70
2023-09-13T01:17:16.199Z,13.30
2023-09-13T01:20:01.876Z,12.80
2023-09-13T01:22:55.732Z,12.10
2023-09-13T01:25:54.769Z,12.00
2023-09-13T01:28:36.532Z,14.30
2023-09-13T01:31:07.046Z,12.20
2023-09-13T01:33:34.634Z,12.40
2023-09-13T01:36:02.700Z,13.00
2023-09-13T01:38:30.538Z,12.30
2023-09-13T01:41:12.741Z,12.00
2023-09-13T01:43:42.842Z,11.70
2023-09-13T01:46:13.077Z,12.10
2023-09-13T01:51:08.951Z,12.50
2023-09-13T01:53:47.133Z,12.70
2023-09-13T01:56:15.086Z,13.10
2023-09-13T01:58:44.026Z,13.50
2023-09-13T02:01:11.485Z,13.90
2023-09-13T02:03:38.679Z,13.10
2023-09-13T02:06:06.547Z,13.70
2023-09-13T02:08:34.268Z,12.40
2023-09-13T02:11:01.576Z,12.60
2023-09-13T02:13:29.121Z,12.10
2023-09-13T02:15:56.391Z,12.90
2023-09-13T02:18:23.777Z,13.10
2023-09-13T02:20:51.352Z,12.10
2023-09-13T02:23:18.520Z,12.30
2023-09-13T02:25:46.994Z,12.30
2023-09-13T02:28:14.662Z,12.30
2023-09-13T02:30:42.031Z,12.00
2023-09-13T02:33:10.987Z,13.60
2023-09-13T02:35:38.509Z,12.30
2023-09-13T02:38:05.717Z,13.30
2023-09-13T02:40:32.896Z,13.70
2023-09-13T02:43:00.409Z,12.90
2023-09-13T02:45:30.334Z,11.90
2023-09-13T02:47:57.767Z,16.00
2023-09-13T02:50:25.185Z,13.50
2023-09-13T02:52:52.588Z,12.80
2023-09-13T02:55:19.929Z,11.80
2023-09-13T02:57:47.172Z,11.90
2023-09-13T03:00:15.851Z,11.60
2023-09-13T03:02:43.901Z,11.70
2023-09-13T03:05:12.852Z,10.70
2023-09-13T03:07:40.105Z,12.80
2023-09-13T03:10:07.852Z,12.90
2023-09-13T03:12:35.114Z,12.10
2023-09-13T03:15:04.150Z,12.20
2023-09-13T03:17:32.202Z,13.50
2023-09-13T03:19:59.524Z,11.70
2023-09-13T03:22:26.941Z,11.30
2023-09-13T03:24:55.605Z,12.10
2023-09-13T03:27:22.868Z,12.00
2023-09-13T03:29:50.042Z,12.80
2023-09-13T03:32:17.883Z,13.30
2023-09-13T03:34:45.440Z,12.70
2023-09-13T03:37:12.663Z,11.50
2023-09-13T03:39:39.907Z,12.00
2023-09-13T03:42:07.729Z,12.20
2023-09-13T03:44:34.955Z,12.10
2023-09-13T03:47:02.309Z,12.20
2023-09-13T03:49:30.711Z,12.60
2023-09-13T03:51:58.892Z,12.70
2023-09-13T03:54:26.368Z,11.90
2023-09-13T03:56:54.237Z,10.90
2023-09-13T03:59:21.542Z,11.50
2023-09-13T04:01:49.289Z,12.00
2023-09-13T04:04:18.065Z,11.90
2023-09-13T04:06:45.614Z,11.60
2023-09-13T04:09:13.359Z,11.40
2023-09-13T04:11:40.937Z,12.10
2023-09-13T04:14:08.498Z,12.00
2023-09-13T04:16:36.240Z,12.00
2023-09-13T04:19:03.888Z,13.10
2023-09-13T04:21:31.526Z,12.70
2023-09-13T04:23:59.384Z,11.90
2023-09-13T04:26:26.647Z,13.20
2023-09-13T04:28:54.841Z,11.80
2023-09-13T04:31:22.340Z,13.70
2023-09-13T04:33:52.044Z,13.20
2023-09-13T04:36:21.352Z,12.70
2023-09-13T04:38:49.166Z,12.70
2023-09-13T04:41:17.390Z,13.00
2023-09-13T04:43:45.265Z,13.70
2023-09-13T04:46:13.071Z,13.60
2023-09-13T04:48:40.461Z,13.90
2023-09-13T04:51:09.365Z,13.30
2023-09-13T04:53:37.319Z,12.80
2023-09-13T04:56:04.597Z,11.90
2023-09-13T04:58:38.665Z,13.90
2023-09-13T05:01:07.005Z,13.70
2023-09-13T05:03:35.672Z,15.10
2023-09-13T05:06:04.368Z,14.40
2023-09-13T05:08:33.867Z,13.30
2023-09-13T05:11:02.691Z,13.40
2023-09-13T05:13:29.920Z,12.90
2023-09-13T05:15:57.211Z,12.70
2023-09-13T05:18:24.463Z,12.00
2023-09-13T05:20:51.679Z,13.30
2023-09-13T05:23:19.227Z,12.80
2023-09-13T05:25:47.193Z,12.90
2023-09-13T05:28:14.539Z,12.80
2023-09-13T05:30:43.203Z,12.20
2023-09-13T05:33:10.937Z,14.00
2023-09-13T05:35:38.202Z,13.20
2023-09-13T05:38:05.397Z,17.20
2023-09-13T05:40:34.066Z,13.80
2023-09-13T05:43:01.366Z,13.60
2023-09-13T05:45:29.004Z,12.60
2023-09-13T05:47:59.367Z,14.20
2023-09-13T05:50:29.462Z,12.90
2023-09-13T05:55:24.248Z,12.70
2023-09-13T05:57:52.543Z,13.00
2023-09-13T06:00:20.229Z,17.80
2023-09-13T06:02:48.059Z,12.70
2023-09-13T06:05:16.621Z,11.20
2023-09-13T06:07:43.768Z,11.10
2023-09-13T06:10:12.006Z,11.30
2023-09-13T06:12:39.999Z,9.90
2023-09-13T06:15:08.792Z,20.50
2023-09-13T06:17:37.656Z,9.40
2023-09-13T06:20:05.696Z,10.60
2023-09-13T06:22:36.210Z,11.40
2023-09-13T06:25:08.426Z,9.50
2023-09-13T06:27:38.043Z,12.30
2023-09-13T06:30:05.834Z,10.10
2023-09-13T06:32:41.021Z,9.00
2023-09-13T06:35:14.980Z,11.60
2023-09-13T06:37:45.937Z,10.50
2023-09-13T06:40:14.509Z,9.00
2023-09-13T06:42:59.430Z,9.50
2023-09-13T06:45:28.454Z,9.80
2023-09-13T06:47:58.530Z,10.50
2023-09-13T06:50:44.814Z,11.60
2023-09-13T06:55:45.411Z,17.40
2023-09-13T06:58:18.625Z,12.20
2023-09-13T07:01:10.136Z,8.50
2023-09-13T07:03:39.740Z,10.00
2023-09-13T07:06:08.882Z,8.20
2023-09-13T07:08:36.154Z,7.80
2023-09-13T07:11:06.765Z,7.60
2023-09-13T07:13:34.300Z,7.80
2023-09-13T07:16:01.709Z,7.20
2023-09-13T07:18:29.026Z,8.00
2023-09-13T07:20:57.599Z,8.50
2023-09-13T07:23:25.027Z,9.40
2023-09-13T07:25:52.465Z,7.20
2023-09-13T07:28:21.424Z,7.20
2023-09-13T07:30:49.113Z,7.60
2023-09-13T07:33:16.312Z,8.10
2023-09-13T07:35:43.617Z,7.90
2023-09-13T07:38:11.458Z,7.90
2023-09-13T07:40:40.180Z,8.50
2023-09-13T07:43:11.003Z,7.60
2023-09-13T07:45:38.528Z,7.90
2023-09-13T07:48:09.403Z,8.00
2023-09-13T07:50:44.102Z,7.70
2023-09-13T07:53:14.835Z,7.70
2023-09-13T07:55:48.380Z,8.40
2023-09-13T07:58:25.671Z,9.20
2023-09-13T08:00:56.261Z,7.30
2023-09-13T08:03:24.093Z,9.60
2023-09-13T08:05:51.935Z,8.70
2023-09-13T08:08:26.724Z,7.80
2023-09-13T08:10:54.036Z,8.20
2023-09-13T08:13:23.997Z,8.80
2023-09-13T08:15:53.557Z,8.30
2023-09-13T08:18:21.066Z,9.40
2023-09-13T08:20:48.470Z,8.50
2023-09-13T08:23:16.106Z,9.00
2023-09-13T08:25:46.520Z,8.30
2023-09-13T08:28:22.251Z,9.20
2023-09-13T08:30:49.989Z,9.00
2023-09-13T08:33:17.466Z,8.40
2023-09-13T08:35:45.104Z,9.00
2023-09-13T08:38:12.305Z,9.70
2023-09-13T08:40:47.180Z,10.20
2023-09-13T08:43:16.959Z,10.30
2023-09-13T08:45:48.591Z,9.90
2023-09-13T08:48:17.367Z,9.10
2023-09-13T08:50:45.895Z,8.90
2023-09-13T08:53:14.147Z,8.40
2023-09-13T08:55:42.045Z,9.20
2023-09-13T08:58:09.887Z,8.70
2023-09-13T09:00:39.016Z,8.90
2023-09-13T09:03:07.984Z,8.80
2023-09-13T09:08:05.217Z,9.20
2023-09-13T09:10:33.347Z,9.10
2023-09-13T09:13:01.785Z,9.60
2023-09-13T09:15:31.459Z,9.10
2023-09-13T09:18:03.096Z,12.10
2023-09-13T09:20:30.995Z,11.00
2023-09-13T09:22:59.414Z,8.70
2023-09-13T09:25:31.106Z,9.00
2023-09-13T09:27:58.628Z,9.60
2023-09-13T09:30:33.269Z,9.20
2023-09-13T09:33:05.704Z,8.80
2023-09-13T09:35:35.834Z,10.00
2023-09-13T09:38:06.544Z,9.50
2023-09-13T09:40:39.045Z,9.80
2023-09-13T09:43:08.747Z,9.10
2023-09-13T09:45:36.090Z,9.40
2023-09-13T09:48:03.812Z,9.30
2023-09-13T09:50:34.231Z,8.30
2023-09-13T09:53:13.675Z,8.90
2023-09-13T09:55:42.171Z,11.10
2023-09-13T09:58:10.811Z,8.90
2023-09-13T10:01:04.232Z,8.90
2023-09-13T10:03:36.103Z,9.30
2023-09-13T10:06:11.290Z,8.40
2023-09-13T10:08:50.955Z,9.00
2023-09-13T10:11:25.145Z,9.00
2023-09-13T10:13:53.421Z,10.00
2023-09-13T10:16:21.924Z,8.60
2023-09-13T10:18:50.633Z,9.10
2023-09-13T10:21:28.100Z,8.60
2023-09-13T10:24:07.173Z,8.30
2023-09-13T10:26:35.682Z,8.70
2023-09-13T10:29:13.106Z,8.10
2023-09-13T10:31:45.127Z,8.60
2023-09-13T10:34:19.244Z,8.00
2023-09-13T10:36:51.629Z,8.80
2023-09-13T10:39:22.566Z,9.10
2023-09-13T10:42:02.554Z,9.70
2023-09-13T10:44:30.362Z,9.20
2023-09-13T10:46:58.753Z,10.20
2023-09-13T10:49:26.909Z,13.80
2023-09-13T10:51:59.202Z,9.70
2023-09-13T10:54:29.330Z,9.70
2023-09-13T10:56:57.565Z,9.10
2023-09-13T10:59:26.747Z,9.80
2023-09-13T11:01:54.258Z,9.20
2023-09-13T11:04:26.749Z,10.90
2023-09-13T11:06:55.379Z,10.60
2023-09-13T11:09:27.813Z,9.10
2023-09-13T11:11:58.626Z,9.50
2023-09-13T11:14:30.864Z,10.00
2023-09-13T11:17:40.858Z,10.00
2023-09-13T11:20:38.377Z,10.60
2023-09-13T11:26:01.783Z,10.50
2023-09-13T11:28:39.805Z,10.90
2023-09-13T11:31:12.570Z,10.30
2023-09-13T11:33:55.672Z,10.20
2023-09-13T11:36:28.446Z,12.00
2023-09-13T11:39:01.435Z,11.10
2023-09-13T11:41:53.176Z,11.10
2023-09-13T11:44:31.712Z,10.30
2023-09-13T11:47:02.996Z,10.70
2023-09-13T11:52:15.286Z,9.90
2023-09-13T11:55:07.446Z,10.00
2023-09-13T11:57:56.798Z,11.00
2023-09-13T12:00:28.611Z,10.30
2023-09-13T12:02:58.042Z,10.30
2023-09-13T12:05:45.489Z,10.10
2023-09-13T12:08:31.981Z,10.40
2023-09-13T12:11:08.521Z,9.50
2023-09-13T12:14:11.205Z,10.30
2023-09-13T12:16:39.908Z,11.80
2023-09-13T12:19:08.285Z,9.60
2023-09-13T12:21:36.053Z,10.20
2023-09-13T12:24:04.451Z,10.80
2023-09-13T12:26:41.242Z,10.70
2023-09-13T12:29:08.668Z,10.50
2023-09-13T12:31:36.611Z,10.40
2023-09-13T12:34:06.035Z,9.90
2023-09-13T12:36:34.278Z,9.60
2023-09-13T12:39:01.658Z,10.40
2023-09-13T12:41:31.553Z,11.10
2023-09-13T12:44:02.820Z,11.00
2023-09-13T12:46:30.182Z,9.10
2023-09-13T12:48:58.910Z,9.10
2023-09-13T12:51:31.968Z,11.00
2023-09-13T12:54:11.522Z,9.60
2023-09-13T12:56:40.987Z,8.70
2023-09-13T12:59:09.746Z,10.90
2023-09-13T13:01:37.846Z,10.70
2023-09-13T13:04:11.114Z,9.30
2023-09-13T13:07:04.640Z,12.00
2023-09-13T13:09:32.054Z,10.70
2023-09-13T13:11:59.593Z,9.90
2023-09-13T13:14:27.971Z,10.70
2023-09-13T13:16:56.982Z,12.10
2023-09-13T13:22:18.192Z,13.40
2023-09-13T13:24:45.830Z,13.40
2023-09-13T13:27:13.358Z,14.20
2023-09-13T13:29:41.217Z,13.20
2023-09-13T13:32:09.449Z,13.10
2023-09-13T13:34:37.028Z,12.20
2023-09-13T13:37:19.552Z,11.60
2023-09-13T13:39:48.866Z,11.70
2023-09-13T13:42:16.139Z,11.30
2023-09-13T13:44:43.523Z,11.00
2023-09-13T13:47:11.216Z,11.20
2023-09-13T13:49:38.538Z,10.00
2023-09-13T13:52:06.023Z,11.20
2023-09-13T13:54:33.938Z,11.40
2023-09-13T13:57:01.369Z,12.40
2023-09-13T13:59:28.763Z,10.70
2023-09-13T14:01:57.418Z,11.30
2023-09-13T14:04:24.812Z,10.20
2023-09-13T14:06:52.251Z,10.10
2023-09-13T14:09:19.718Z,9.70
2023-09-13T14:11:47.543Z,11.00
2023-09-13T14:14:19.543Z,9.40
2023-09-13T14:16:48.885Z,9.90
2023-09-13T14:19:16.875Z,8.90
2023-09-13T14:21:46.686Z,10.00
2023-09-13T14:24:14.548Z,9.30
2023-09-13T14:26:42.258Z,9.10
2023-09-13T14:29:09.950Z,11.60
2023-09-13T14:31:38.418Z,8.90
2023-09-13T14:34:07.052Z,8.80
2023-09-13T14:36:34.459Z,8.00
2023-09-13T14:39:01.954Z,9.20
2023-09-13T14:41:29.924Z,9.50
2023-09-13T14:43:57.224Z,8.10
2023-09-13T14:46:24.837Z,7.80
2023-09-13T14:48:54.100Z,7.70
2023-09-13T14:51:21.963Z,7.00
2023-09-13T14:53:49.273Z,6.40
2023-09-13T14:56:17.001Z,5.90
2023-09-13T14:58:45.814Z,6.00
2023-09-13T15:01:13.626Z,6.10
2023-09-13T15:03:42.214Z,6.90
2023-09-13T15:06:09.611Z,6.10
2023-09-13T15:08:37.000Z,6.10
2023-09-13T15:11:04.195Z,5.70
2023-09-13T15:13:31.414Z,6.20
2023-09-13T15:15:58.996Z,6.50
2023-09-13T15:18:26.962Z,6.00
2023-09-13T15:20:54.270Z,5.30
2023-09-13T15:23:21.871Z,6.90
2023-09-13T15:25:49.460Z,5.80
2023-09-13T15:28:18.674Z,5.40
2023-09-13T15:30:47.283Z,5.30
2023-09-13T15:33:14.689Z,5.30
2023-09-13T15:35:42.124Z,5.70
2023-09-13T15:38:09.603Z,5.60
2023-09-13T15:40:36.771Z,4.80
2023-09-13T15:43:04.196Z,5.60
2023-09-13T15:45:33.212Z,4.70
2023-09-13T15:48:00.706Z,4.80
2023-09-13T15:50:28.200Z,5.30
2023-09-13T15:52:55.562Z,5.20
2023-09-13T15:55:24.342Z,5.00
2023-09-13T15:57:51.633Z,5.10
2023-09-13T16:00:19.416Z,7.10
2023-09-13T16:02:46.766Z,4.80
2023-09-13T16:05:15.169Z,4.50
2023-09-13T16:07:42.857Z,4.70
2023-09-13T16:10:10.556Z,5.00
2023-09-13T16:12:39.636Z,4.90
2023-09-13T16:15:09.115Z,4.80
2023-09-13T16:17:39.884Z,4.80
2023-09-13T16:20:09.689Z,4.10
2023-09-13T16:22:36.876Z,11.60
2023-09-13T16:25:04.446Z,5.10
2023-09-13T16:27:32.116Z,4.70
2023-09-13T16:30:00.293Z,5.60
2023-09-13T16:32:27.543Z,4.70
2023-09-13T16:34:55.193Z,5.00
2023-09-13T16:37:22.561Z,4.60
2023-09-13T16:39:51.906Z,4.50
2023-09-13T16:42:19.563Z,4.30
2023-09-13T16:44:46.810Z,3.40
2023-09-13T16:47:15.231Z,3.80
2023-09-13T16:49:42.624Z,4.70
2023-09-13T16:52:09.858Z,4.30
2023-09-13T16:54:40.016Z,4.10
2023-09-13T16:57:07.899Z,4.20
2023-09-13T16:59:35.609Z,4.40
2023-09-13T17:02:03.848Z,4.80
2023-09-13T17:04:39.428Z,5.00
2023-09-13T17:07:23.854Z,5.80
2023-09-13T17:10:11.237Z,6.10
2023-09-13T17:12:50.785Z,4.80
2023-09-13T17:15:39.989Z,5.30
2023-09-13T17:18:24.702Z,5.00
2023-09-13T17:21:15.782Z,4.50
2023-09-13T17:23:48.486Z,4.40
2023-09-13T17:26:23.897Z,4.60
2023-09-13T17:28:59.887Z,4.90
2023-09-13T17:31:43.987Z,4.20
2023-09-13T17:34:29.774Z,4.30
2023-09-13T17:37:08.933Z,4.70
2023-09-13T17:39:48.264Z,4.30
2023-09-13T17:42:34.130Z,4.20
2023-09-13T17:45:07.604Z,3.80
2023-09-13T17:47:36.403Z,3.30
2023-09-13T17:50:04.672Z,3.90
2023-09-13T17:52:32.483Z,4.00
2023-09-13T17:54:59.760Z,3.50
2023-09-13T17:57:27.125Z,3.30
2023-09-13T17:59:54.618Z,4.40
2023-09-13T18:02:21.783Z,4.10
2023-09-13T18:04:51.073Z,3.20
2023-09-13T18:07:19.370Z,3.00
2023-09-13T18:09:46.597Z,3.30
2023-09-13T18:12:13.805Z,4.20
2023-09-13T18:14:41.425Z,3.00
2023-09-13T18:17:08.576Z,3.40
2023-09-13T18:19:37.689Z,2.80
2023-09-13T18:22:07.841Z,3.60
2023-09-13T18:27:08.642Z,2.80
2023-09-13T18:29:37.548Z,3.10
2023-09-13T18:32:05.270Z,2.50
2023-09-13T18:34:32.978Z,2.30
2023-09-13T18:37:00.245Z,2.00
2023-09-13T18:39:27.475Z,2.40
2023-09-13T18:41:55.047Z,2.20
2023-09-13T18:44:23.752Z,2.50
2023-09-13T18:46:52.871Z,2.90
2023-09-13T18:49:20.763Z,2.90
2023-09-13T18:51:48.460Z,2.70
2023-09-13T18:54:16.123Z,2.10
2023-09-13T18:56:43.598Z,2.50
2023-09-13T18:59:11.020Z,2.00
2023-09-13T19:01:39.394Z,2.70
2023-09-13T19:04:07.395Z,2.40
2023-09-13T19:06:34.669Z,2.80
2023-09-13T19:09:03.149Z,2.30
2023-09-13T19:11:30.538Z,2.60
2023-09-13T19:13:57.743Z,3.00
2023-09-13T19:16:26.534Z,2.60
2023-09-13T19:18:57.486Z,2.40
2023-09-13T19:21:24.720Z,1.90
2023-09-13T19:23:52.899Z,1.90
2023-09-13T19:26:22.083Z,2.20
2023-09-13T19:31:18.135Z,2.20
2023-09-13T19:33:46.099Z,2.70
2023-09-13T19:36:13.344Z,2.50
2023-09-13T19:38:40.904Z,2.80
2023-09-13T19:41:08.057Z,3.00
2023-09-13T19:43:35.912Z,2.30
2023-09-13T19:46:03.877Z,2.60
2023-09-13T19:48:33.583Z,2.40
2023-09-13T19:51:12.736Z,2.90
2023-09-13T19:53:41.778Z,3.70
2023-09-13T19:56:09.965Z,3.30
2023-09-13T19:58:37.929Z,3.30
2023-09-13T20:01:06.878Z,2.90
2023-09-13T20:03:34.825Z,2.70
2023-09-13T20:06:20.533Z,3.60
2023-09-13T20:08:48.170Z,3.10
2023-09-13T20:11:17.184Z,2.70
2023-09-13T20:13:44.670Z,3.40
2023-09-13T20:16:12.051Z,3.00
2023-09-13T20:18:39.809Z,2.10
2023-09-13T20:21:07.319Z,2.20
2023-09-13T20:23:34.542Z,2.20
2023-09-13T20:26:02.812Z,2.30
2023-09-13T20:28:31.466Z,2.70
2023-09-13T20:31:02.290Z,2.40
2023-09-13T20:33:31.880Z,2.20
2023-09-13T20:36:00.754Z,2.30
2023-09-13T20:38:28.242Z,2.30
2023-09-13T20:40:55.983Z,2.20
2023-09-13T20:43:23.309Z,2.50
2023-09-13T20:45:50.578Z,2.00
2023-09-13T20:48:18.063Z,2.60
2023-09-13T20:50:45.308Z,2.30
2023-09-13T20:53:12.703Z,2.30
2023-09-13T20:55:40.236Z,2.50
2023-09-13T20:58:07.537Z,2.50
2023-09-13T21:00:34.981Z,2.10
2023-09-13T21:03:05.484Z,2.20
2023-09-13T21:05:34.052Z,2.30
2023-09-13T21:08:01.498Z,2.00
2023-09-13T21:10:28.856Z,2.00
2023-09-13T21:12:56.043Z,2.40
2023-09-13T21:15:23.976Z,1.90
2023-09-13T21:17:51.208Z,2.20
2023-09-13T21:20:18.725Z,2.40
2023-09-13T21:22:46.573Z,2.10
2023-09-13T21:25:16.282Z,2.40
2023-09-13T21:27:43.808Z,2.40
2023-09-13T21:30:11.517Z,2.00
2023-09-13T21:32:39.665Z,3.00
2023-09-13T21:35:08.570Z,2.30
2023-09-13T21:37:35.725Z,2.40
2023-09-13T21:40:03.973Z,2.20
2023-09-13T21:42:31.473Z,2.20
2023-09-13T21:44:58.993Z,3.00
2023-09-13T21:47:27.580Z,2.90
2023-09-13T21:49:55.773Z,2.60
2023-09-13T21:52:22.951Z,2.30
2023-09-13T21:54:51.117Z,3.20
2023-09-13T21:57:22.008Z,2.60
2023-09-13T21:59:49.233Z,2.30
2023-09-13T22:02:16.782Z,2.80
2023-09-13T22:04:44.179Z,2.30
2023-09-13T22:07:11.495Z,2.60
2023-09-13T22:09:39.054Z,2.50
2023-09-13T22:12:06.730Z,2.90
2023-09-13T22:14:34.055Z,2.60
2023-09-13T22:17:01.640Z,2.30
2023-09-13T22:19:28.879Z,2.50
2023-09-13T22:21:56.490Z,2.40
2023-09-13T22:24:28.166Z,2.90
2023-09-13T22:26:55.914Z,2.40
2023-09-13T22:29:23.258Z,2.30
2023-09-13T22:31:52.471Z,2.20
2023-09-13T22:34:20.159Z,2.60
2023-09-13T22:36:48.331Z,2.80
2023-09-13T22:39:16.095Z,2.40
2023-09-13T22:41:44.031Z,2.60
2023-09-13T22:44:11.772Z,2.80
2023-09-13T22:46:39.262Z,2.20
2023-09-13T22:49:06.555Z,2.60
2023-09-13T22:51:34.425Z,2.70
2023-09-13T22:54:03.807Z,2.50
2023-09-13T22:56:31.026Z,2.60
2023-09-13T22:58:58.830Z,2.60
2023-09-13T23:01:26.060Z,2.20
2023-09-13T23:03:53.491Z,2.60
2023-09-13T23:06:21.566Z,2.70
2023-09-13T23:08:49.577Z,2.80
2023-09-13T23:11:16.929Z,2.40
2023-09-13T23:13:49.310Z,2.50
2023-09-13T23:16:16.560Z,2.70
2023-09-13T23:18:43.929Z,2.60
2023-09-13T23:21:12.934Z,2.70
2023-09-13T23:23:40.050Z,2.60
2023-09-13T23:26:08.093Z,3.10
2023-09-13T23:28:35.993Z,2.70
2023-09-13T23:31:07.180Z,2.40
2023-09-13T23:33:36.631Z,2.70
2023-09-13T23:36:05.078Z,2.40
2023-09-13T23:38:32.953Z,2.40
2023-09-13T23:41:08.512Z,2.50
2023-09-13T23:43:36.790Z,2.60
2023-09-13T23:46:05.182Z,2.70
2023-09-13T23:48:34.587Z,3.00
2023-09-13T23:51:03.826Z,2.70
2023-09-13T23:53:31.919Z,2.80
2023-09-13T23:56:01.223Z,2.40
2023-09-13T23:58:28.592Z,2.10
